Terminal Aerodrome Forecast
Issued by NWS Wilmington, NC

Home | Current Version | Previous Version | Text Only | Print | Product List | Glossary On
Versions: 1 2 3 4 5 6 7 8 9 10 11 12 13 14
194
FTUS42 KILM 241120
TAFLBT
TAF
KLBT 241120Z 2412/2512 06008KT 6SM -SHRA OVC012
      TEMPO 2412/2414 2SM +SHRA OVC006
     FM241400 09010KT 5SM -SHRA OVC008
      TEMPO 2416/2420 1SM +TSRA OVC004CB
     FM242100 08010KT 2SM SHRA OVC003
     FM242300 05010KT 2SM +SHRA OVC001
     FM250700 02009KT 2SM +SHRA OVC005
     FM251000 33009KT 3SM SHRA OVC015
      TEMPO 2510/2512 P6SM OVC010=

USA.gov is the U.S. government's official web portal to all federal, state and local government web resources and services.